createdAt,value
2023-03-26T00:00:58.984Z,6.67
2023-03-26T00:03:38.213Z,6.69
2023-03-26T00:06:10.850Z,6.70
2023-03-26T00:08:41.123Z,6.72
2023-03-26T00:11:12.327Z,6.73
2023-03-26T00:13:44.105Z,6.75
2023-03-26T00:16:14.607Z,6.75
2023-03-26T00:18:45.786Z,6.76
2023-03-26T00:21:17.133Z,6.77
2023-03-26T00:23:46.516Z,6.78
2023-03-26T00:26:19.374Z,6.81
2023-03-26T00:28:51.337Z,6.84
2023-03-26T00:31:21.589Z,6.84
2023-03-26T00:33:54.629Z,6.86
2023-03-26T00:36:26.025Z,6.88
2023-03-26T00:38:55.791Z,6.90
2023-03-26T00:41:26.663Z,6.91
2023-03-26T00:43:58.241Z,6.91
2023-03-26T00:46:28.681Z,6.90
2023-03-26T00:49:00.622Z,6.91
2023-03-26T00:51:34.328Z,6.90
2023-03-26T00:54:03.378Z,6.89
2023-03-26T00:56:34.433Z,6.86
2023-03-26T00:59:03.528Z,6.84
2023-03-26T01:01:37.392Z,6.83
2023-03-26T01:04:29.021Z,6.81
2023-03-26T01:07:03.029Z,6.81
2023-03-26T01:09:35.010Z,6.80
2023-03-26T01:12:07.797Z,6.78
2023-03-26T01:14:40.239Z,6.77
2023-03-26T01:17:10.722Z,6.75
2023-03-26T01:19:46.192Z,6.74
2023-03-26T01:22:19.804Z,6.73
2023-03-26T01:24:54.104Z,6.72
2023-03-26T01:30:50.089Z,6.69
2023-03-26T01:33:30.813Z,6.69
2023-03-26T01:36:05.483Z,6.71
2023-03-26T01:38:49.325Z,6.70
2023-03-26T01:41:52.040Z,6.69
2023-03-26T01:44:45.251Z,6.67
2023-03-26T01:47:16.112Z,6.66
2023-03-26T01:49:46.593Z,6.65
2023-03-26T01:52:19.048Z,6.64
2023-03-26T01:54:48.966Z,6.62
2023-03-26T01:57:24.477Z,6.61
2023-03-26T02:00:07.574Z,6.61
2023-03-26T02:02:49.397Z,6.61
2023-03-26T02:05:31.547Z,6.60
2023-03-26T02:08:07.213Z,6.60
2023-03-26T02:10:41.457Z,6.61
2023-03-26T02:13:12.023Z,6.60
2023-03-26T02:15:41.926Z,6.61
2023-03-26T02:18:13.830Z,6.61
2023-03-26T02:20:47.856Z,6.61
2023-03-26T02:23:16.760Z,6.61
2023-03-26T02:25:49.349Z,6.62
2023-03-26T02:28:20.601Z,6.61
2023-03-26T02:30:50.972Z,6.61
2023-03-26T02:33:22.195Z,6.62
2023-03-26T02:35:52.083Z,6.62
2023-03-26T02:38:21.254Z,6.63
2023-03-26T02:40:52.947Z,6.63
2023-03-26T02:43:23.944Z,6.63
2023-03-26T02:45:54.707Z,6.63
2023-03-26T02:48:42.911Z,6.62
2023-03-26T02:51:21.923Z,6.61
2023-03-26T02:54:04.954Z,6.61
2023-03-26T02:56:33.942Z,6.60
2023-03-26T02:59:25.463Z,6.59
2023-03-26T03:02:13.986Z,6.60
2023-03-26T03:04:44.703Z,6.61
2023-03-26T03:07:15.402Z,6.61
2023-03-26T03:09:46.241Z,6.62
2023-03-26T03:12:39.094Z,6.63
2023-03-26T03:18:06.907Z,6.62
2023-03-26T03:20:36.232Z,6.63
2023-03-26T03:23:06.640Z,6.64
2023-03-26T03:25:38.963Z,6.65
2023-03-26T03:28:09.154Z,6.65
2023-03-26T03:30:40.115Z,6.65
2023-03-26T03:33:16.545Z,6.65
2023-03-26T03:35:50.133Z,6.65
2023-03-26T03:38:22.015Z,6.64
2023-03-26T03:40:55.929Z,6.64
2023-03-26T03:43:27.890Z,6.63
2023-03-26T03:46:05.677Z,6.62
2023-03-26T03:48:41.503Z,6.61
2023-03-26T03:51:12.629Z,6.62
2023-03-26T03:54:02.380Z,6.61
2023-03-26T03:56:48.214Z,6.60
2023-03-26T03:59:47.809Z,6.60
2023-03-26T04:02:26.916Z,6.58
2023-03-26T04:05:01.374Z,6.56
2023-03-26T04:07:32.771Z,6.54
2023-03-26T04:10:09.813Z,6.55
2023-03-26T04:12:59.796Z,6.57
2023-03-26T04:15:44.014Z,6.58
2023-03-26T04:18:38.687Z,6.59
2023-03-26T04:21:16.186Z,6.60
2023-03-26T04:23:46.254Z,6.61
2023-03-26T04:26:26.552Z,6.62
2023-03-26T04:29:22.440Z,6.62
2023-03-26T04:31:52.560Z,6.63
2023-03-26T04:34:27.586Z,6.63
2023-03-26T04:37:14.733Z,6.64
2023-03-26T04:39:46.492Z,6.63
2023-03-26T04:42:38.475Z,6.61
2023-03-26T04:45:23.863Z,6.60
2023-03-26T04:48:01.152Z,6.60
2023-03-26T04:50:32.382Z,6.61
2023-03-26T04:53:03.315Z,6.60
2023-03-26T04:56:12.221Z,6.59
2023-03-26T04:59:11.083Z,6.60
2023-03-26T05:01:42.306Z,6.60
2023-03-26T05:04:15.029Z,6.59
2023-03-26T05:06:45.299Z,6.59
2023-03-26T05:09:23.675Z,6.59
2023-03-26T05:12:13.245Z,6.58
2023-03-26T05:14:55.406Z,6.58
2023-03-26T05:18:00.269Z,6.59
2023-03-26T05:20:35.108Z,6.59
2023-03-26T05:23:05.017Z,6.60
2023-03-26T05:25:37.735Z,6.59
2023-03-26T05:28:13.473Z,6.59
2023-03-26T05:31:03.553Z,6.58
2023-03-26T05:33:36.689Z,6.57
2023-03-26T05:36:15.757Z,6.56
2023-03-26T05:38:50.012Z,6.58
2023-03-26T05:41:40.889Z,6.58
2023-03-26T05:44:10.671Z,6.59
2023-03-26T05:46:41.694Z,6.61
2023-03-26T05:49:14.845Z,6.63
2023-03-26T05:51:47.290Z,6.66
2023-03-26T05:54:32.694Z,6.69
2023-03-26T05:57:42.795Z,6.73
2023-03-26T06:01:03.239Z,6.79
2023-03-26T06:03:37.392Z,6.84
2023-03-26T06:06:21.103Z,6.86
2023-03-26T06:09:01.691Z,6.88
2023-03-26T06:11:32.488Z,6.87
2023-03-26T06:14:03.200Z,6.86
2023-03-26T06:16:35.372Z,6.89
2023-03-26T06:19:20.143Z,6.92
2023-03-26T06:21:53.245Z,6.93
2023-03-26T06:24:39.235Z,6.94
2023-03-26T06:27:24.310Z,6.96
2023-03-26T06:30:14.036Z,6.94
2023-03-26T06:33:10.545Z,6.93
2023-03-26T06:35:47.129Z,6.94
2023-03-26T06:38:18.040Z,6.97
2023-03-26T06:40:48.229Z,7.02
2023-03-26T06:43:26.994Z,6.99
2023-03-26T06:46:18.071Z,7.00
2023-03-26T06:48:56.747Z,7.03
2023-03-26T06:51:50.005Z,7.07
2023-03-26T06:54:33.066Z,7.08
2023-03-26T06:57:35.285Z,7.10
2023-03-26T07:00:31.038Z,7.16
2023-03-26T07:03:18.633Z,7.21
2023-03-26T07:06:07.591Z,7.27
2023-03-26T07:08:57.858Z,7.28
2023-03-26T07:12:03.930Z,7.32
2023-03-26T07:14:53.152Z,7.38
2023-03-26T07:18:33.804Z,7.39
2023-03-26T07:21:07.704Z,7.48
2023-03-26T07:23:38.092Z,7.52
2023-03-26T07:26:30.160Z,7.49
2023-03-26T07:29:25.377Z,7.50
2023-03-26T07:32:11.679Z,7.50
2023-03-26T07:34:52.151Z,7.42
2023-03-26T07:38:01.545Z,7.33
2023-03-26T07:41:00.758Z,7.30
2023-03-26T07:43:59.389Z,7.25
2023-03-26T07:46:32.403Z,7.21
2023-03-26T07:49:39.321Z,7.26
2023-03-26T07:52:18.725Z,7.37
2023-03-26T07:54:48.126Z,7.42
2023-03-26T07:58:01.852Z,7.47
2023-03-26T08:01:02.606Z,7.62
2023-03-26T08:03:43.007Z,7.88
2023-03-26T08:06:51.564Z,7.98
2023-03-26T08:10:00.466Z,8.19
2023-03-26T08:12:52.741Z,8.29
2023-03-26T08:15:39.600Z,8.34
2023-03-26T08:18:27.767Z,8.37
2023-03-26T08:21:01.934Z,8.37
2023-03-26T08:23:50.406Z,8.35
2023-03-26T08:26:29.372Z,8.22
2023-03-26T08:29:05.655Z,7.98
2023-03-26T08:31:40.825Z,7.75
2023-03-26T08:34:12.687Z,7.59
2023-03-26T08:36:43.583Z,7.47
2023-03-26T08:39:13.602Z,7.42
2023-03-26T08:41:53.713Z,7.34
2023-03-26T08:44:24.443Z,7.23
2023-03-26T08:47:16.045Z,7.11
2023-03-26T08:50:04.897Z,7.07
2023-03-26T08:52:44.442Z,7.17
2023-03-26T08:55:27.655Z,7.41
2023-03-26T08:58:18.188Z,7.64
2023-03-26T09:01:07.892Z,7.96
2023-03-26T09:04:00.593Z,8.31
2023-03-26T09:06:50.504Z,9.13
2023-03-26T09:09:24.280Z,10.28
2023-03-26T09:12:02.555Z,10.94
2023-03-26T09:14:51.822Z,11.09
2023-03-26T09:17:52.391Z,11.04
2023-03-26T09:20:54.934Z,10.72
2023-03-26T09:23:56.062Z,11.66
2023-03-26T09:26:50.976Z,13.46
2023-03-26T09:29:43.726Z,16.09
2023-03-26T09:32:17.381Z,16.76
2023-03-26T09:35:02.353Z,15.55
2023-03-26T09:37:56.633Z,14.37
2023-03-26T09:40:39.079Z,13.88
2023-03-26T09:43:14.874Z,13.83
2023-03-26T09:45:53.630Z,13.28
2023-03-26T09:48:27.275Z,13.28
2023-03-26T09:51:07.122Z,13.04
2023-03-26T09:53:37.920Z,12.36
2023-03-26T09:56:28.394Z,11.97
2023-03-26T09:59:09.321Z,11.77
2023-03-26T10:02:05.543Z,11.73
2023-03-26T10:04:59.984Z,11.99
2023-03-26T10:07:48.178Z,12.39
2023-03-26T10:10:39.907Z,12.63
2023-03-26T10:13:18.292Z,13.84
2023-03-26T10:16:07.305Z,14.68
2023-03-26T10:22:39.695Z,12.77
2023-03-26T10:25:21.612Z,13.42
2023-03-26T10:28:10.656Z,15.12
2023-03-26T10:30:59.461Z,16.25
2023-03-26T10:33:33.248Z,15.78
2023-03-26T10:36:23.259Z,15.07
2023-03-26T10:38:53.426Z,14.40
2023-03-26T10:41:33.372Z,14.05
2023-03-26T10:44:30.465Z,13.58
2023-03-26T10:47:14.702Z,13.39
2023-03-26T10:50:23.174Z,12.99
2023-03-26T10:53:29.730Z,12.74
2023-03-26T10:56:22.879Z,12.44
2023-03-26T10:59:02.360Z,12.30
2023-03-26T11:01:41.316Z,12.13
2023-03-26T11:04:39.130Z,11.89
2023-03-26T11:07:26.936Z,11.56
2023-03-26T11:10:16.035Z,11.54
2023-03-26T11:12:48.407Z,12.29
2023-03-26T11:15:18.132Z,12.56
2023-03-26T11:17:55.537Z,12.57
2023-03-26T11:20:47.814Z,12.40
2023-03-26T11:23:16.786Z,12.89
2023-03-26T11:25:53.285Z,13.60
2023-03-26T11:28:31.909Z,14.25
2023-03-26T11:31:05.172Z,15.03
2023-03-26T11:33:37.632Z,14.54
2023-03-26T11:36:21.457Z,13.86
2023-03-26T11:38:52.738Z,13.32
2023-03-26T11:41:28.318Z,13.00
2023-03-26T11:44:08.995Z,12.49
2023-03-26T11:46:40.736Z,12.02
2023-03-26T11:49:15.283Z,11.77
2023-03-26T11:51:48.070Z,11.60
2023-03-26T11:54:19.038Z,11.80
2023-03-26T11:57:18.481Z,11.96
2023-03-26T11:59:57.603Z,12.22
2023-03-26T12:02:33.002Z,12.46
2023-03-26T12:05:15.521Z,12.59
2023-03-26T12:07:50.522Z,12.31
2023-03-26T12:10:24.274Z,11.98
2023-03-26T12:12:59.012Z,11.68
2023-03-26T12:15:30.326Z,11.45
2023-03-26T12:21:46.554Z,11.80
2023-03-26T12:24:28.790Z,12.08
2023-03-26T12:27:21.126Z,12.45
2023-03-26T12:29:55.737Z,12.51
2023-03-26T12:32:32.577Z,12.44
2023-03-26T12:48:03.953Z,12.11
2023-03-26T12:50:51.675Z,12.03
2023-03-26T12:53:33.845Z,11.99
2023-03-26T12:56:08.667Z,12.08
2023-03-26T12:58:51.844Z,12.78
2023-03-26T13:01:38.241Z,13.35
2023-03-26T13:04:15.983Z,13.11
2023-03-26T13:07:02.052Z,12.88
2023-03-26T13:09:52.881Z,12.79
2023-03-26T13:12:35.531Z,12.53
2023-03-26T13:15:15.572Z,12.30
2023-03-26T13:18:10.477Z,12.43
2023-03-26T13:20:41.037Z,12.95
2023-03-26T13:23:37.625Z,13.18
2023-03-26T13:26:25.985Z,13.48
2023-03-26T13:29:15.627Z,13.51
2023-03-26T13:32:06.481Z,13.65
2023-03-26T13:34:40.045Z,13.62
2023-03-26T13:37:27.869Z,13.29
2023-03-26T13:40:05.621Z,12.90
2023-03-26T13:42:41.265Z,12.42
2023-03-26T13:45:29.019Z,12.07
2023-03-26T13:48:01.158Z,11.69
2023-03-26T13:50:44.899Z,11.16
2023-03-26T13:53:20.489Z,10.61
2023-03-26T13:55:55.056Z,10.33
2023-03-26T13:58:42.915Z,10.00
2023-03-26T14:01:13.157Z,9.79
2023-03-26T14:04:01.390Z,9.72
2023-03-26T14:06:37.200Z,9.72
2023-03-26T14:09:11.781Z,9.72
2023-03-26T14:11:53.702Z,9.76
2023-03-26T14:14:45.167Z,9.81
2023-03-26T14:21:52.657Z,10.16
2023-03-26T14:24:48.986Z,10.77
2023-03-26T14:27:46.004Z,11.36
2023-03-26T14:30:23.514Z,11.71
2023-03-26T14:33:13.322Z,11.84
2023-03-26T14:36:05.387Z,11.70
2023-03-26T14:39:01.728Z,11.54
2023-03-26T14:41:51.237Z,11.71
2023-03-26T14:44:55.740Z,11.46
2023-03-26T14:47:34.436Z,11.02
2023-03-26T14:50:32.815Z,10.73
2023-03-26T14:53:16.637Z,10.45
2023-03-26T14:56:14.380Z,10.20
2023-03-26T14:58:55.722Z,10.19
2023-03-26T15:01:58.595Z,10.46
2023-03-26T15:04:46.349Z,10.56
2023-03-26T15:07:50.095Z,10.52
2023-03-26T15:10:41.560Z,10.47
2023-03-26T15:13:44.003Z,10.42
2023-03-26T15:16:42.461Z,10.41
2023-03-26T15:19:41.984Z,10.60
2023-03-26T15:22:33.515Z,10.91
2023-03-26T15:25:27.178Z,11.27
2023-03-26T15:28:22.707Z,11.58
2023-03-26T15:31:18.145Z,11.72
2023-03-26T15:34:05.138Z,11.80
2023-03-26T15:37:02.708Z,11.76
2023-03-26T15:40:12.130Z,11.78
2023-03-26T15:43:10.388Z,11.62
2023-03-26T15:45:49.003Z,11.55
2023-03-26T15:48:59.016Z,11.64
2023-03-26T15:51:54.248Z,11.66
2023-03-26T15:54:43.523Z,11.34
2023-03-26T15:57:22.705Z,11.02
2023-03-26T16:00:17.651Z,10.79
2023-03-26T16:03:36.244Z,10.56
2023-03-26T16:06:29.738Z,10.41
2023-03-26T16:09:26.343Z,10.28
2023-03-26T16:12:02.895Z,10.24
2023-03-26T16:14:36.925Z,10.22
2023-03-26T16:17:17.275Z,10.17
2023-03-26T16:20:09.200Z,10.12
2023-03-26T16:22:54.652Z,10.15
2023-03-26T16:25:30.764Z,10.19
2023-03-26T16:28:10.258Z,10.24
2023-03-26T16:30:42.881Z,10.27
2023-03-26T16:33:17.467Z,10.32
2023-03-26T16:36:03.355Z,10.31
2023-03-26T16:38:51.160Z,10.25
2023-03-26T16:41:35.198Z,10.09
2023-03-26T16:44:14.980Z,9.84
2023-03-26T16:47:06.395Z,9.65
2023-03-26T16:50:07.517Z,9.48
2023-03-26T16:52:47.302Z,9.26
2023-03-26T16:55:24.078Z,9.12
2023-03-26T16:58:05.215Z,8.96
2023-03-26T17:00:56.153Z,8.80
2023-03-26T17:03:42.473Z,8.61
2023-03-26T17:06:26.874Z,8.49
2023-03-26T17:09:17.572Z,8.33
2023-03-26T17:11:47.636Z,8.19
2023-03-26T17:14:18.318Z,8.08
2023-03-26T17:17:09.121Z,8.03
2023-03-26T17:19:51.695Z,8.01
2023-03-26T17:22:32.100Z,8.02
2023-03-26T17:25:27.379Z,8.08
2023-03-26T17:28:28.873Z,8.13
2023-03-26T17:31:05.901Z,8.16
2023-03-26T17:33:40.879Z,8.22
2023-03-26T17:36:15.870Z,8.19
2023-03-26T17:38:48.166Z,8.05
2023-03-26T17:41:41.479Z,7.88
2023-03-26T17:44:38.502Z,7.81
2023-03-26T17:47:33.817Z,7.73
2023-03-26T17:50:24.989Z,7.69
2023-03-26T17:52:59.087Z,7.63
2023-03-26T17:55:35.803Z,7.56
2023-03-26T17:58:48.607Z,7.49
2023-03-26T18:01:22.827Z,7.47
2023-03-26T18:03:57.567Z,7.40
2023-03-26T18:06:42.961Z,7.39
2023-03-26T18:09:33.954Z,7.31
2023-03-26T18:12:20.950Z,7.21
2023-03-26T18:15:05.786Z,7.07
2023-03-26T18:20:56.215Z,6.93
2023-03-26T18:23:30.065Z,6.84
2023-03-26T18:26:10.660Z,6.81
2023-03-26T18:28:46.466Z,6.78
2023-03-26T18:31:19.630Z,6.72
2023-03-26T18:34:02.920Z,6.66
2023-03-26T18:36:34.192Z,6.57
2023-03-26T18:39:07.529Z,6.51
2023-03-26T18:41:43.218Z,6.47
2023-03-26T18:44:18.568Z,6.43
2023-03-26T18:46:52.379Z,6.37
2023-03-26T18:49:25.226Z,6.30
2023-03-26T18:51:58.942Z,6.22
2023-03-26T18:54:34.405Z,6.16
2023-03-26T18:57:16.248Z,6.11
2023-03-26T18:59:55.374Z,6.03
2023-03-26T19:02:27.925Z,5.95
2023-03-26T19:05:00.303Z,5.87
2023-03-26T19:07:34.368Z,5.77
2023-03-26T19:10:05.901Z,5.71
2023-03-26T19:12:44.099Z,5.68
2023-03-26T19:15:19.945Z,5.64
2023-03-26T19:18:05.392Z,5.60
2023-03-26T19:20:47.889Z,5.54
2023-03-26T19:23:25.317Z,5.46
2023-03-26T19:26:04.566Z,5.39
2023-03-26T19:28:42.654Z,5.32
2023-03-26T19:31:18.923Z,5.23
2023-03-26T19:34:21.936Z,5.12
2023-03-26T19:37:04.968Z,5.01
2023-03-26T19:39:39.901Z,4.93
2023-03-26T19:42:19.267Z,4.87
2023-03-26T19:44:54.784Z,4.82
2023-03-26T19:47:46.160Z,4.80
2023-03-26T19:50:27.911Z,4.77
2023-03-26T19:53:16.859Z,4.77
2023-03-26T19:56:15.806Z,4.76
2023-03-26T19:58:49.266Z,4.69
2023-03-26T20:01:26.155Z,4.63
2023-03-26T20:04:10.700Z,4.58
2023-03-26T20:06:44.315Z,4.55
2023-03-26T20:09:22.172Z,4.51
2023-03-26T20:11:56.075Z,4.46
2023-03-26T20:14:45.438Z,4.40
2023-03-26T20:17:32.131Z,4.33
2023-03-26T20:20:04.268Z,4.28
2023-03-26T20:22:53.537Z,4.20
2023-03-26T20:25:44.555Z,4.12
2023-03-26T20:28:15.955Z,4.07
2023-03-26T20:31:02.546Z,3.97
2023-03-26T20:33:39.658Z,3.97
2023-03-26T20:36:12.111Z,4.04
2023-03-26T20:38:42.807Z,4.10
2023-03-26T20:41:18.961Z,4.18
2023-03-26T20:43:49.081Z,4.31
2023-03-26T20:46:21.171Z,4.41
2023-03-26T20:48:55.452Z,4.51
2023-03-26T20:51:27.194Z,4.61
2023-03-26T20:53:58.718Z,4.70
2023-03-26T20:56:31.128Z,4.79
2023-03-26T20:59:10.511Z,4.88
2023-03-26T21:01:44.528Z,4.95
2023-03-26T21:04:14.146Z,5.04
2023-03-26T21:06:47.702Z,5.17
2023-03-26T21:09:19.154Z,5.26
2023-03-26T21:11:56.111Z,5.35
2023-03-26T21:14:26.599Z,5.41
2023-03-26T21:16:57.858Z,5.48
2023-03-26T21:19:29.824Z,5.50
2023-03-26T21:22:09.928Z,5.51
2023-03-26T21:24:59.876Z,5.51
2023-03-26T21:27:36.685Z,5.46
2023-03-26T21:30:12.332Z,5.44
2023-03-26T21:32:45.180Z,5.41
2023-03-26T21:35:16.704Z,5.38
2023-03-26T21:37:49.170Z,5.37
2023-03-26T21:40:19.977Z,5.38
2023-03-26T21:42:53.621Z,5.40
2023-03-26T21:45:24.271Z,5.42
2023-03-26T21:47:57.703Z,5.43
2023-03-26T21:50:31.527Z,5.46
2023-03-26T21:53:03.241Z,5.49
2023-03-26T21:55:40.596Z,5.51
2023-03-26T21:58:18.869Z,5.49
2023-03-26T22:00:47.880Z,5.49
2023-03-26T22:03:29.255Z,5.53
2023-03-26T22:06:00.605Z,5.51
2023-03-26T22:08:29.390Z,5.50
2023-03-26T22:11:01.510Z,5.46
2023-03-26T22:13:32.206Z,5.40
2023-03-26T22:16:01.382Z,5.35
2023-03-26T22:22:54.915Z,5.05
2023-03-26T22:25:24.608Z,4.94
2023-03-26T22:27:55.720Z,4.80
2023-03-26T22:30:26.238Z,4.65
2023-03-26T22:32:59.153Z,4.52
2023-03-26T22:35:30.164Z,4.37
2023-03-26T22:38:01.356Z,4.26
2023-03-26T22:40:31.620Z,4.15
2023-03-26T22:43:01.043Z,4.08
2023-03-26T22:45:30.528Z,4.04
2023-03-26T22:48:04.597Z,3.99
2023-03-26T22:50:38.552Z,3.95
2023-03-26T22:53:08.953Z,3.89
2023-03-26T22:55:40.267Z,3.82
2023-03-26T22:58:09.749Z,3.74
2023-03-26T23:00:40.458Z,3.66
2023-03-26T23:03:10.198Z,3.56
2023-03-26T23:05:40.273Z,3.47
2023-03-26T23:08:11.620Z,3.39
2023-03-26T23:10:44.112Z,3.33
2023-03-26T23:13:13.119Z,3.26
2023-03-26T23:15:43.373Z,3.21
2023-03-26T23:18:43.959Z,3.15
2023-03-26T23:21:14.972Z,3.10
2023-03-26T23:23:46.022Z,3.10
2023-03-26T23:26:16.885Z,3.11
2023-03-26T23:28:48.182Z,3.13
2023-03-26T23:31:17.360Z,3.14
2023-03-26T23:33:51.210Z,3.14
2023-03-26T23:36:21.366Z,3.11
2023-03-26T23:38:52.162Z,3.08
2023-03-26T23:41:23.273Z,3.05
2023-03-26T23:43:55.776Z,3.00
2023-03-26T23:46:31.177Z,2.91
2023-03-26T23:49:02.716Z,2.80
2023-03-26T23:51:33.581Z,2.68
2023-03-26T23:54:05.601Z,2.56
2023-03-26T23:56:34.516Z,2.38
2023-03-26T23:59:05.241Z,2.20
